首页
METAR-TAF:

METAR-TAF

机场 :

伊莎貝拉國際機場

聖多明哥, 多米尼加共和国

纬度: 18-34-32N, 经度: 069-58-53W, 海拔: 15米

当前天气观测

该预报发布于1小时和9分钟前的17:00 UTC
风速6节,风向东转东南
温度 30°C
湿度 62%
气压 1019 hPa
能见度10公里或以上
散云层高于2000英尺

METAR: MDJB 101700Z 12006KT 9999 SCT020 30/22 Q1019 NOSIG

时间: 14:09 (18:09 UTC)

预报

该预报发布于2小时和9分钟前的16:00 UTC
预报有效从10日的 18点(UTC)到 11日的 18点(UTC)
风速10节,风向
能见度10公里或以上
散云层高于2000英尺

TAF: MDJB 101600Z 1018/1118 09010KT 9999 SCT020

超过4000个机场的气象观测和天气预报(METAR&TAF报告)。

可查询的气象台以黄色和红色小点在地图上表示。

将鼠标移到小点上方,可查看气象台名称。

然后点击查看天气观测和预报。

如需切换地图:点击带黑十字的绿色按钮放大地图;点击带横线的绿色按钮缩小地图;或者点击绿色箭头查看邻近地区的地图。


METAR-TAF: